createdAt,value
2023-01-31T00:00:26.888Z,2.65
2023-01-31T00:02:53.548Z,2.78
2023-01-31T00:05:20.808Z,2.80
2023-01-31T00:07:48.098Z,2.35
2023-01-31T00:10:14.849Z,2.67
2023-01-31T00:12:41.552Z,2.08
2023-01-31T00:15:08.696Z,2.10
2023-01-31T00:17:36.004Z,2.50
2023-01-31T00:20:02.763Z,2.10
2023-01-31T00:22:29.471Z,2.33
2023-01-31T00:24:56.165Z,2.60
2023-01-31T00:27:22.829Z,2.33
2023-01-31T00:29:49.482Z,1.98
2023-01-31T00:32:19.536Z,2.03
2023-01-31T00:34:46.241Z,2.28
2023-01-31T00:37:12.991Z,2.55
2023-01-31T00:39:40.222Z,2.58
2023-01-31T00:42:06.897Z,2.80
2023-01-31T00:44:33.523Z,2.53
2023-01-31T00:47:00.377Z,2.10
2023-01-31T00:49:27.171Z,2.72
2023-01-31T00:51:53.893Z,1.80
2023-01-31T00:54:20.526Z,2.10
2023-01-31T00:56:47.152Z,1.95
2023-01-31T00:59:13.868Z,2.20
2023-01-31T01:01:40.688Z,2.47
2023-01-31T01:04:07.627Z,2.35
2023-01-31T01:06:40.462Z,2.20
2023-01-31T01:09:07.220Z,2.60
2023-01-31T01:11:34.773Z,1.83
2023-01-31T01:14:01.631Z,2.15
2023-01-31T01:16:32.861Z,2.28
2023-01-31T01:19:01.943Z,1.98
2023-01-31T01:21:31.068Z,2.50
2023-01-31T01:24:01.276Z,2.58
2023-01-31T01:26:32.052Z,1.70
2023-01-31T01:28:59.909Z,1.60
2023-01-31T01:31:31.244Z,2.10
2023-01-31T01:34:00.688Z,2.22
2023-01-31T01:36:34.675Z,1.65
2023-01-31T01:39:02.122Z,2.53
2023-01-31T01:41:28.868Z,2.00
2023-01-31T01:43:57.910Z,1.85
2023-01-31T01:46:32.872Z,1.50
2023-01-31T01:49:28.900Z,2.85
2023-01-31T01:51:56.688Z,2.13
2023-01-31T01:54:30.874Z,1.60
2023-01-31T01:57:00.855Z,2.38
2023-01-31T01:59:33.951Z,1.60
2023-01-31T02:02:02.117Z,2.25
2023-01-31T02:04:33.004Z,2.28
2023-01-31T02:07:00.633Z,1.98
2023-01-31T02:09:42.686Z,2.10
2023-01-31T02:12:12.319Z,1.95
2023-01-31T02:14:40.135Z,2.03
2023-01-31T02:17:12.399Z,1.83
2023-01-31T02:19:56.056Z,1.70
2023-01-31T02:23:04.201Z,1.73
2023-01-31T02:25:53.147Z,1.65
2023-01-31T02:28:23.027Z,2.55
2023-01-31T02:31:24.046Z,1.27
2023-01-31T02:34:22.650Z,2.17
2023-01-31T02:36:53.081Z,2.38
2023-01-31T02:39:19.627Z,1.75
2023-01-31T02:41:58.021Z,1.88
2023-01-31T02:44:56.394Z,1.80
2023-01-31T02:47:44.873Z,3.03
2023-01-31T02:50:22.958Z,1.88
2023-01-31T02:53:20.592Z,1.90
2023-01-31T02:56:18.020Z,1.75
2023-01-31T02:58:58.446Z,1.73
2023-01-31T03:01:29.269Z,2.42
2023-01-31T03:04:05.888Z,1.80
2023-01-31T03:06:36.691Z,1.50
2023-01-31T03:09:36.786Z,1.60
2023-01-31T03:12:19.546Z,1.88
2023-01-31T03:14:47.076Z,1.70
2023-01-31T03:17:32.830Z,1.67
2023-01-31T03:20:16.083Z,2.10
2023-01-31T03:22:49.657Z,1.95
2023-01-31T03:25:19.790Z,1.60
2023-01-31T03:28:06.565Z,1.65
2023-01-31T03:30:40.289Z,1.92
2023-01-31T03:33:17.002Z,1.40
2023-01-31T03:35:47.705Z,1.45
2023-01-31T03:38:21.961Z,1.20
2023-01-31T03:41:01.821Z,1.58
2023-01-31T03:43:38.328Z,1.30
2023-01-31T03:46:13.579Z,1.85
2023-01-31T03:48:46.217Z,1.83
2023-01-31T03:51:18.440Z,1.77
2023-01-31T03:53:58.562Z,1.60
2023-01-31T03:56:29.602Z,2.20
2023-01-31T03:59:02.547Z,2.67
2023-01-31T04:01:32.568Z,2.60
2023-01-31T04:04:04.967Z,2.63
2023-01-31T04:06:32.199Z,1.90
2023-01-31T04:08:59.349Z,2.00
2023-01-31T04:11:27.035Z,1.33
2023-01-31T04:13:54.060Z,1.75
2023-01-31T04:16:20.760Z,2.13
2023-01-31T04:18:47.376Z,2.42
2023-01-31T04:21:15.319Z,2.13
2023-01-31T04:23:42.021Z,1.98
2023-01-31T04:26:08.758Z,2.20
2023-01-31T04:28:35.414Z,1.85
2023-01-31T04:31:02.142Z,2.42
2023-01-31T04:33:28.863Z,1.50
2023-01-31T04:35:55.503Z,1.50
2023-01-31T04:38:22.169Z,2.45
2023-01-31T04:40:51.896Z,2.38
2023-01-31T04:43:18.596Z,2.30
2023-01-31T04:45:45.456Z,2.20
2023-01-31T04:48:12.131Z,2.03
2023-01-31T04:50:38.751Z,2.05
2023-01-31T04:53:05.449Z,1.83
2023-01-31T04:55:32.179Z,1.42
2023-01-31T04:57:58.876Z,2.15
2023-01-31T05:00:28.605Z,2.20
2023-01-31T05:02:55.393Z,1.67
2023-01-31T05:05:22.205Z,2.30
2023-01-31T05:07:48.967Z,2.20
2023-01-31T05:10:19.029Z,1.35
2023-01-31T05:12:46.824Z,1.55
2023-01-31T05:15:13.489Z,2.08
2023-01-31T05:17:40.197Z,1.42
2023-01-31T05:20:08.147Z,2.38
2023-01-31T05:22:34.825Z,2.45
2023-01-31T05:25:01.526Z,2.70
2023-01-31T05:27:28.226Z,1.98
2023-01-31T05:29:58.091Z,2.20
2023-01-31T05:32:24.924Z,2.15
2023-01-31T05:34:51.588Z,1.85
2023-01-31T05:37:19.459Z,2.05
2023-01-31T05:39:46.124Z,1.83
2023-01-31T05:42:15.929Z,2.85
2023-01-31T05:44:42.573Z,2.28
2023-01-31T05:47:09.200Z,1.70
2023-01-31T05:49:36.819Z,2.28
2023-01-31T05:52:03.553Z,3.38
2023-01-31T05:54:30.245Z,2.33
2023-01-31T05:56:56.894Z,2.15
2023-01-31T05:59:23.599Z,2.28
2023-01-31T06:01:50.306Z,2.22
2023-01-31T06:04:17.037Z,2.25
2023-01-31T06:06:45.494Z,2.17
2023-01-31T06:09:12.175Z,2.35
2023-01-31T06:11:38.926Z,2.47
2023-01-31T06:14:06.800Z,2.95
2023-01-31T06:16:33.489Z,2.28
2023-01-31T06:19:00.232Z,2.28
2023-01-31T06:21:27.109Z,2.30
2023-01-31T06:23:54.000Z,2.03
2023-01-31T06:26:21.001Z,2.42
2023-01-31T06:28:47.654Z,2.33
2023-01-31T06:31:14.519Z,1.73
2023-01-31T06:33:47.618Z,1.98
2023-01-31T06:36:18.381Z,2.50
2023-01-31T06:38:49.512Z,1.70
2023-01-31T06:41:16.459Z,1.80
2023-01-31T06:43:43.081Z,1.75
2023-01-31T06:46:11.784Z,2.25
2023-01-31T06:48:38.452Z,2.00
2023-01-31T06:51:05.276Z,2.15
2023-01-31T06:53:34.879Z,1.85
2023-01-31T06:56:01.897Z,1.88
2023-01-31T06:58:28.775Z,1.70
2023-01-31T07:00:55.410Z,1.80
2023-01-31T07:03:22.033Z,2.00
2023-01-31T07:05:48.869Z,2.05
2023-01-31T07:08:15.524Z,1.67
2023-01-31T07:10:42.197Z,2.40
2023-01-31T07:13:08.811Z,2.58
2023-01-31T07:15:35.428Z,2.03
2023-01-31T07:18:02.358Z,2.28
2023-01-31T07:20:28.996Z,2.10
2023-01-31T07:22:56.968Z,2.83
2023-01-31T07:25:24.167Z,2.28
2023-01-31T07:27:51.532Z,2.30
2023-01-31T07:30:18.437Z,2.67
2023-01-31T07:32:45.446Z,2.78
2023-01-31T07:35:12.077Z,2.70
2023-01-31T07:37:39.570Z,2.38
2023-01-31T07:40:07.185Z,3.30
2023-01-31T07:42:33.837Z,2.38
2023-01-31T07:45:10.144Z,2.50
2023-01-31T07:47:47.101Z,2.50
2023-01-31T07:50:13.730Z,4.72
2023-01-31T07:52:40.465Z,2.50
2023-01-31T07:55:07.614Z,2.50
2023-01-31T07:57:34.302Z,3.60
2023-01-31T08:00:01.367Z,2.45
2023-01-31T08:02:56.850Z,2.63
2023-01-31T08:05:23.844Z,5.22
2023-01-31T08:08:10.505Z,2.08
2023-01-31T08:10:37.468Z,1.90
2023-01-31T08:13:04.511Z,3.05
2023-01-31T08:15:31.127Z,2.40
2023-01-31T08:17:58.027Z,2.40
2023-01-31T08:20:24.641Z,2.35
2023-01-31T08:22:51.265Z,1.92
2023-01-31T08:25:19.703Z,1.90
2023-01-31T08:27:47.415Z,2.85
2023-01-31T08:30:14.283Z,3.03
2023-01-31T08:32:41.095Z,2.30
2023-01-31T08:35:07.990Z,2.10
2023-01-31T08:37:34.964Z,2.58
2023-01-31T08:40:01.917Z,2.05
2023-01-31T08:42:29.296Z,2.55
2023-01-31T08:44:59.612Z,2.72
2023-01-31T08:47:26.363Z,1.77
2023-01-31T08:49:53.051Z,2.60
2023-01-31T08:52:20.266Z,3.47
2023-01-31T08:54:46.877Z,3.03
2023-01-31T08:57:13.609Z,3.40
2023-01-31T08:59:40.632Z,3.08
2023-01-31T09:02:07.724Z,5.60
2023-01-31T09:04:34.374Z,3.55
2023-01-31T09:07:01.084Z,3.65
2023-01-31T09:09:29.907Z,2.63
2023-01-31T09:11:56.815Z,3.35
2023-01-31T09:14:23.590Z,2.45
2023-01-31T09:16:50.331Z,2.50
2023-01-31T09:19:16.969Z,3.25
2023-01-31T09:21:43.702Z,3.03
2023-01-31T09:24:10.526Z,3.10
2023-01-31T09:26:38.105Z,2.25
2023-01-31T09:29:04.880Z,2.75
2023-01-31T09:31:32.258Z,2.90
2023-01-31T09:33:59.202Z,2.55
2023-01-31T09:36:25.964Z,2.53
2023-01-31T09:38:57.020Z,2.25
2023-01-31T09:41:28.536Z,2.53
2023-01-31T09:44:05.273Z,3.42
2023-01-31T09:46:41.275Z,2.95
2023-01-31T09:49:11.293Z,2.55
2023-01-31T09:51:39.249Z,2.33
2023-01-31T09:54:11.081Z,2.80
2023-01-31T09:56:43.293Z,2.47
2023-01-31T09:59:25.661Z,2.55
2023-01-31T10:02:05.509Z,2.03
2023-01-31T10:04:43.056Z,2.78
2023-01-31T10:07:16.822Z,3.15
2023-01-31T10:09:57.203Z,2.70
2023-01-31T10:12:30.850Z,2.10
2023-01-31T10:15:01.733Z,2.05
2023-01-31T10:17:41.077Z,2.08
2023-01-31T10:20:16.514Z,2.10
2023-01-31T10:22:47.345Z,2.50
2023-01-31T10:25:27.164Z,1.80
2023-01-31T10:28:10.122Z,2.60
2023-01-31T10:30:43.500Z,2.50
2023-01-31T10:33:21.899Z,2.80
2023-01-31T10:35:50.979Z,2.97
2023-01-31T10:38:32.242Z,2.60
2023-01-31T10:41:14.871Z,3.05
2023-01-31T10:43:49.534Z,2.60
2023-01-31T10:46:16.218Z,2.15
2023-01-31T10:48:48.381Z,3.15
2023-01-31T10:51:38.872Z,3.35
2023-01-31T10:54:16.323Z,3.00
2023-01-31T10:56:49.620Z,2.53
2023-01-31T10:59:39.318Z,2.65
2023-01-31T11:02:19.119Z,2.65
2023-01-31T11:04:45.854Z,3.20
2023-01-31T11:07:12.910Z,2.38
2023-01-31T11:09:58.738Z,3.15
2023-01-31T11:12:56.902Z,2.58
2023-01-31T11:15:29.282Z,2.63
2023-01-31T11:18:00.391Z,3.80
2023-01-31T11:20:32.137Z,3.38
2023-01-31T11:23:00.352Z,3.47
2023-01-31T11:25:34.324Z,3.22
2023-01-31T11:28:02.215Z,3.83
2023-01-31T11:30:32.059Z,3.28
2023-01-31T11:32:58.992Z,3.60
2023-01-31T11:35:34.448Z,3.72
2023-01-31T11:38:20.848Z,3.20
2023-01-31T11:40:47.482Z,3.50
2023-01-31T11:43:14.028Z,3.33
2023-01-31T11:45:45.071Z,3.10
2023-01-31T11:48:14.870Z,3.83
2023-01-31T11:50:51.306Z,3.10
2023-01-31T11:53:19.174Z,3.25
2023-01-31T11:55:47.053Z,3.17
2023-01-31T11:58:21.228Z,3.00
2023-01-31T12:00:54.565Z,3.72
2023-01-31T12:03:21.401Z,3.63
2023-01-31T12:05:51.516Z,3.85
2023-01-31T12:08:35.904Z,3.30
2023-01-31T12:11:21.976Z,3.03
2023-01-31T12:13:53.593Z,2.83
2023-01-31T12:16:22.625Z,3.50
2023-01-31T12:19:28.313Z,3.53
2023-01-31T12:22:11.245Z,4.22
2023-01-31T12:25:04.377Z,3.60
2023-01-31T12:27:56.782Z,3.83
2023-01-31T12:30:34.927Z,3.50
2023-01-31T12:33:23.401Z,3.92
2023-01-31T12:36:08.785Z,3.95
2023-01-31T12:38:54.202Z,3.97
2023-01-31T12:41:33.110Z,4.03
2023-01-31T12:44:33.457Z,4.15
2023-01-31T12:47:21.617Z,3.85
2023-01-31T12:50:03.644Z,4.65
2023-01-31T12:52:51.914Z,4.80
2023-01-31T12:55:37.080Z,5.30
2023-01-31T12:58:15.954Z,5.65
2023-01-31T13:01:06.898Z,4.63
2023-01-31T13:03:42.250Z,5.75
2023-01-31T13:06:24.734Z,6.15
2023-01-31T13:09:09.020Z,5.15
2023-01-31T13:11:50.616Z,4.88
2023-01-31T13:14:21.938Z,6.30
2023-01-31T13:16:52.806Z,5.47
2023-01-31T13:19:26.650Z,5.30
2023-01-31T13:21:58.083Z,5.50
2023-01-31T13:24:29.826Z,5.75
2023-01-31T13:27:03.817Z,5.70
2023-01-31T13:29:43.630Z,5.50
2023-01-31T13:32:16.094Z,5.72
2023-01-31T13:34:52.878Z,5.40
2023-01-31T13:37:22.644Z,5.07
2023-01-31T13:40:13.949Z,5.55
2023-01-31T13:42:40.570Z,5.15
2023-01-31T13:45:10.058Z,5.05
2023-01-31T13:47:47.694Z,4.70
2023-01-31T13:50:43.281Z,5.22
2023-01-31T13:53:16.457Z,5.15
2023-01-31T13:55:46.231Z,4.82
2023-01-31T13:58:22.899Z,5.10
2023-01-31T14:01:04.762Z,4.03
2023-01-31T14:03:31.475Z,4.70
2023-01-31T14:06:00.222Z,4.95
2023-01-31T14:08:37.553Z,4.78
2023-01-31T14:11:25.467Z,4.65
2023-01-31T14:14:07.404Z,4.47
2023-01-31T14:16:43.239Z,3.85
2023-01-31T14:19:19.030Z,3.75
2023-01-31T14:21:55.405Z,3.53
2023-01-31T14:24:53.232Z,4.03
2023-01-31T14:27:20.477Z,3.70
2023-01-31T14:30:05.785Z,4.05
2023-01-31T14:32:39.641Z,4.10
2023-01-31T14:35:12.498Z,4.55
2023-01-31T14:37:58.018Z,3.95
2023-01-31T14:40:34.310Z,3.90
2023-01-31T14:43:22.382Z,4.20
2023-01-31T14:46:00.050Z,4.68
2023-01-31T14:48:43.387Z,3.60
2023-01-31T14:51:19.237Z,3.72
2023-01-31T14:53:56.559Z,4.10
2023-01-31T14:56:35.728Z,3.67
2023-01-31T14:59:02.830Z,4.60
2023-01-31T15:01:36.812Z,3.60
2023-01-31T15:04:04.654Z,4.10
2023-01-31T15:06:41.007Z,4.22
2023-01-31T15:09:24.582Z,4.05
2023-01-31T15:11:56.220Z,7.43
2023-01-31T15:14:35.083Z,5.72
2023-01-31T15:17:33.661Z,5.28
2023-01-31T15:20:18.897Z,4.53
2023-01-31T15:22:47.102Z,4.43
2023-01-31T15:25:33.179Z,4.72
2023-01-31T15:28:00.931Z,4.28
2023-01-31T15:30:29.148Z,4.45
2023-01-31T15:32:58.030Z,4.80
2023-01-31T15:35:49.808Z,4.85
2023-01-31T15:38:21.767Z,4.72
2023-01-31T15:41:05.751Z,5.10
2023-01-31T15:43:32.598Z,4.80
2023-01-31T15:45:59.239Z,4.65
2023-01-31T15:48:26.076Z,4.32
2023-01-31T15:50:55.042Z,4.80
2023-01-31T15:53:24.705Z,5.28
2023-01-31T15:55:54.778Z,5.10
2023-01-31T15:58:23.741Z,4.28
2023-01-31T16:01:00.957Z,5.40
2023-01-31T16:03:33.656Z,5.20
2023-01-31T16:06:00.878Z,5.57
2023-01-31T16:08:27.553Z,5.30
2023-01-31T16:10:54.437Z,5.63
2023-01-31T16:13:21.968Z,5.65
2023-01-31T16:15:49.694Z,5.80
2023-01-31T16:18:19.943Z,6.78
2023-01-31T16:20:47.951Z,5.80
2023-01-31T16:23:31.973Z,6.53
2023-01-31T16:26:03.630Z,6.22
2023-01-31T16:28:44.699Z,6.43
2023-01-31T16:31:13.936Z,6.05
2023-01-31T16:33:47.702Z,6.13
2023-01-31T16:36:17.495Z,5.88
2023-01-31T16:38:55.985Z,6.50
2023-01-31T16:41:36.983Z,6.32
2023-01-31T16:44:03.750Z,6.00
2023-01-31T16:46:44.473Z,7.03
2023-01-31T16:49:20.270Z,6.65
2023-01-31T16:51:47.760Z,6.25
2023-01-31T16:54:19.479Z,6.28
2023-01-31T16:56:47.793Z,6.68
2023-01-31T16:59:33.143Z,6.70
2023-01-31T17:02:30.796Z,6.78
2023-01-31T17:05:09.378Z,7.13
2023-01-31T17:07:36.917Z,6.90
2023-01-31T17:10:07.824Z,6.65
2023-01-31T17:12:36.945Z,7.60
2023-01-31T17:15:13.015Z,7.25
2023-01-31T17:17:39.873Z,7.72
2023-01-31T17:20:07.011Z,7.22
2023-01-31T17:22:33.807Z,7.35
2023-01-31T17:25:00.479Z,7.38
2023-01-31T17:27:27.201Z,6.93
2023-01-31T17:29:53.918Z,7.20
2023-01-31T17:32:21.481Z,8.25
2023-01-31T17:34:51.060Z,8.70
2023-01-31T17:37:30.120Z,8.70
2023-01-31T17:39:58.165Z,8.27
2023-01-31T17:42:24.869Z,8.30
2023-01-31T17:44:51.673Z,8.23
2023-01-31T17:47:18.817Z,8.30
2023-01-31T17:49:45.640Z,7.75
2023-01-31T17:52:12.471Z,7.95
2023-01-31T17:54:39.169Z,8.05
2023-01-31T17:57:06.895Z,7.75
2023-01-31T17:59:34.568Z,7.03
2023-01-31T18:02:01.396Z,7.35
2023-01-31T18:04:28.268Z,7.22
2023-01-31T18:06:55.220Z,7.38
2023-01-31T18:09:22.346Z,6.80
2023-01-31T18:11:49.266Z,7.45
2023-01-31T18:14:16.119Z,7.25
2023-01-31T18:16:43.429Z,8.30
2023-01-31T18:19:11.731Z,6.35
2023-01-31T18:21:41.418Z,6.90
2023-01-31T18:24:13.935Z,6.57
2023-01-31T18:26:40.784Z,6.78
2023-01-31T18:29:07.643Z,6.47
2023-01-31T18:31:34.432Z,5.85
2023-01-31T18:34:01.190Z,6.28
2023-01-31T18:36:27.881Z,6.25
2023-01-31T18:38:54.535Z,5.88
2023-01-31T18:41:21.943Z,6.60
2023-01-31T18:43:49.208Z,5.75
2023-01-31T18:46:17.284Z,5.55
2023-01-31T18:48:44.210Z,6.13
2023-01-31T18:51:12.857Z,5.60
2023-01-31T18:53:42.244Z,6.00
2023-01-31T18:56:20.027Z,4.75
2023-01-31T18:58:49.445Z,5.38
2023-01-31T19:01:23.979Z,5.53
2023-01-31T19:03:55.572Z,5.68
2023-01-31T19:06:27.824Z,5.18
2023-01-31T19:08:57.071Z,4.82
2023-01-31T19:11:25.897Z,5.13
2023-01-31T19:13:53.032Z,5.25
2023-01-31T19:16:25.275Z,5.18
2023-01-31T19:18:56.267Z,5.25
2023-01-31T19:21:28.645Z,4.50
2023-01-31T19:23:57.534Z,4.47
2023-01-31T19:26:24.514Z,4.38
2023-01-31T19:28:54.450Z,4.18
2023-01-31T19:31:23.855Z,4.55
2023-01-31T19:33:55.726Z,4.22
2023-01-31T19:36:25.321Z,3.63
2023-01-31T19:38:52.341Z,3.45
2023-01-31T19:41:21.089Z,3.50
2023-01-31T19:43:51.843Z,2.80
2023-01-31T19:46:18.905Z,2.70
2023-01-31T19:48:46.252Z,2.47
2023-01-31T19:51:14.827Z,1.92
2023-01-31T19:53:42.385Z,1.30
2023-01-31T19:56:09.137Z,1.25
2023-01-31T19:58:36.043Z,1.50
2023-01-31T20:01:05.293Z,1.05
2023-01-31T20:03:32.134Z,1.65
2023-01-31T20:06:03.637Z,1.77
2023-01-31T20:08:31.037Z,2.08
2023-01-31T20:10:58.126Z,1.83
2023-01-31T20:13:25.372Z,2.10
2023-01-31T20:15:59.588Z,1.60
2023-01-31T20:18:27.124Z,1.63
2023-01-31T20:20:53.768Z,2.38
2023-01-31T20:23:20.730Z,1.73
2023-01-31T20:25:51.480Z,1.88
2023-01-31T20:28:20.002Z,1.60
2023-01-31T20:30:46.939Z,2.17
2023-01-31T20:33:14.567Z,2.10
2023-01-31T20:35:41.667Z,1.70
2023-01-31T20:38:09.216Z,2.08
2023-01-31T20:40:36.066Z,1.92
2023-01-31T20:43:02.786Z,1.85
2023-01-31T20:45:29.596Z,1.80
2023-01-31T20:47:57.057Z,2.05
2023-01-31T20:50:24.827Z,1.42
2023-01-31T20:52:53.816Z,1.80
2023-01-31T20:55:20.947Z,1.95
2023-01-31T20:57:50.265Z,2.53
2023-01-31T21:00:18.333Z,2.03
2023-01-31T21:02:45.657Z,2.80
2023-01-31T21:05:12.721Z,1.90
2023-01-31T21:07:39.697Z,2.38
2023-01-31T21:10:07.428Z,2.47
2023-01-31T21:12:37.334Z,2.95
2023-01-31T21:15:04.526Z,1.83
2023-01-31T21:17:39.915Z,1.83
2023-01-31T21:20:08.289Z,2.15
2023-01-31T21:22:35.151Z,2.53
2023-01-31T21:25:01.987Z,1.90
2023-01-31T21:27:28.885Z,2.83
2023-01-31T21:29:55.651Z,2.42
2023-01-31T21:32:22.512Z,2.35
2023-01-31T21:34:49.320Z,3.00
2023-01-31T21:37:15.973Z,2.03
2023-01-31T21:39:42.880Z,1.92
2023-01-31T21:42:16.654Z,2.30
2023-01-31T21:44:44.127Z,1.70
2023-01-31T21:47:11.279Z,3.33
2023-01-31T21:49:38.118Z,2.20
2023-01-31T21:52:05.635Z,2.40
2023-01-31T21:54:32.677Z,2.05
2023-01-31T21:56:59.673Z,2.00
2023-01-31T21:59:26.500Z,2.00
2023-01-31T22:01:53.394Z,2.33
2023-01-31T22:04:21.124Z,1.95
2023-01-31T22:06:48.777Z,2.65
2023-01-31T22:09:15.746Z,2.45
2023-01-31T22:11:42.841Z,2.88
2023-01-31T22:14:12.259Z,2.55
2023-01-31T22:16:39.512Z,2.78
2023-01-31T22:19:06.423Z,2.50
2023-01-31T22:21:35.209Z,2.28
2023-01-31T22:24:03.463Z,2.10
2023-01-31T22:26:32.143Z,2.85
2023-01-31T22:29:01.213Z,3.38
2023-01-31T22:31:28.958Z,3.78
2023-01-31T22:33:56.276Z,2.45
2023-01-31T22:36:26.238Z,2.92
2023-01-31T22:38:54.007Z,3.05
2023-01-31T22:41:21.045Z,2.70
2023-01-31T22:43:49.517Z,4.07
2023-01-31T22:46:19.500Z,3.70
2023-01-31T22:48:49.472Z,2.50
2023-01-31T22:51:20.377Z,2.75
2023-01-31T22:53:47.482Z,5.63
2023-01-31T22:56:17.148Z,3.42
2023-01-31T22:58:44.178Z,2.97
2023-01-31T23:01:19.830Z,3.20
2023-01-31T23:03:47.234Z,3.47
2023-01-31T23:06:14.993Z,2.50
2023-01-31T23:08:41.829Z,3.00
2023-01-31T23:11:10.676Z,2.92
2023-01-31T23:13:38.040Z,3.55
2023-01-31T23:16:05.969Z,3.88
2023-01-31T23:18:32.956Z,3.65
2023-01-31T23:21:11.609Z,3.03
2023-01-31T23:23:38.317Z,3.08
2023-01-31T23:26:05.524Z,3.72
2023-01-31T23:28:32.273Z,3.63
2023-01-31T23:30:59.100Z,3.08
2023-01-31T23:33:25.805Z,3.05
2023-01-31T23:35:52.871Z,4.68
2023-01-31T23:38:19.928Z,3.63
2023-01-31T23:40:53.549Z,3.60
2023-01-31T23:43:20.993Z,4.50
2023-01-31T23:45:47.962Z,4.05
2023-01-31T23:48:14.635Z,3.63
2023-01-31T23:50:41.305Z,3.25
2023-01-31T23:53:08.039Z,4.13
2023-01-31T23:55:34.687Z,2.97
2023-01-31T23:58:01.383Z,2.97
